sensor_id;sensor_type;location;lat;lon;timestamp;P1;durP1;ratioP1;P2;durP2;ratioP2
27489;SDS011;14925;51.026;13.752;2022-09-23T00:02:18;8.32;;;6.50;;
27489;SDS011;14925;51.026;13.752;2022-09-23T00:04:44;10.50;;;7.10;;
27489;SDS011;14925;51.026;13.752;2022-09-23T00:07:10;11.77;;;7.40;;
27489;SDS011;14925;51.026;13.752;2022-09-23T00:09:36;9.57;;;7.00;;
27489;SDS011;14925;51.026;13.752;2022-09-23T00:12:01;9.27;;;6.60;;
27489;SDS011;14925;51.026;13.752;2022-09-23T00:14:27;12.30;;;7.57;;
27489;SDS011;14925;51.026;13.752;2022-09-23T00:16:52;10.65;;;7.13;;
27489;SDS011;14925;51.026;13.752;2022-09-23T00:19:17;20.65;;;8.10;;
27489;SDS011;14925;51.026;13.752;2022-09-23T00:21:42;11.18;;;7.93;;
27489;SDS011;14925;51.026;13.752;2022-09-23T00:24:08;12.10;;;7.57;;
27489;SDS011;14925;51.026;13.752;2022-09-23T00:26:33;10.75;;;6.03;;
27489;SDS011;14925;51.026;13.752;2022-09-23T00:28:59;8.80;;;6.72;;
27489;SDS011;14925;51.026;13.752;2022-09-23T00:31:24;9.70;;;6.72;;
27489;SDS011;14925;51.026;13.752;2022-09-23T00:33:55;11.07;;;7.47;;
27489;SDS011;14925;51.026;13.752;2022-09-23T00:36:21;14.25;;;7.05;;
27489;SDS011;14925;51.026;13.752;2022-09-23T00:38:47;8.85;;;6.45;;
27489;SDS011;14925;51.026;13.752;2022-09-23T00:41:12;8.68;;;5.68;;
27489;SDS011;14925;51.026;13.752;2022-09-23T00:43:56;9.13;;;6.45;;
27489;SDS011;14925;51.026;13.752;2022-09-23T00:46:25;8.00;;;5.88;;
27489;SDS011;14925;51.026;13.752;2022-09-23T00:48:59;9.05;;;6.72;;
27489;SDS011;14925;51.026;13.752;2022-09-23T00:51:32;8.95;;;7.22;;
27489;SDS011;14925;51.026;13.752;2022-09-23T00:54:07;16.80;;;7.38;;
27489;SDS011;14925;51.026;13.752;2022-09-23T00:56:33;11.45;;;7.18;;
27489;SDS011;14925;51.026;13.752;2022-09-23T00:58:59;11.45;;;7.53;;
27489;SDS011;14925;51.026;13.752;2022-09-23T01:01:25;9.15;;;6.05;;
27489;SDS011;14925;51.026;13.752;2022-09-23T01:03:50;17.10;;;7.43;;
27489;SDS011;14925;51.026;13.752;2022-09-23T01:06:18;14.57;;;7.55;;
27489;SDS011;14925;51.026;13.752;2022-09-23T01:08:44;12.50;;;7.65;;
27489;SDS011;14925;51.026;13.752;2022-09-23T01:16:40;10.07;;;6.80;;
27489;SDS011;14925;51.026;13.752;2022-09-23T01:22:03;11.68;;;7.15;;
27489;SDS011;14925;51.026;13.752;2022-09-23T01:27:17;8.02;;;6.55;;
27489;SDS011;14925;51.026;13.752;2022-09-23T01:29:52;8.93;;;7.45;;
27489;SDS011;14925;51.026;13.752;2022-09-23T01:34:57;10.70;;;7.45;;
27489;SDS011;14925;51.026;13.752;2022-09-23T01:45:38;8.52;;;6.25;;
27489;SDS011;14925;51.026;13.752;2022-09-23T01:48:16;8.35;;;5.32;;
27489;SDS011;14925;51.026;13.752;2022-09-23T01:50:48;10.23;;;6.85;;
27489;SDS011;14925;51.026;13.752;2022-09-23T01:53:27;10.85;;;7.93;;
27489;SDS011;14925;51.026;13.752;2022-09-23T01:55:55;9.93;;;6.63;;
27489;SDS011;14925;51.026;13.752;2022-09-23T01:58:33;8.68;;;6.97;;
27489;SDS011;14925;51.026;13.752;2022-09-23T02:01:21;13.07;;;8.57;;
27489;SDS011;14925;51.026;13.752;2022-09-23T02:03:54;10.98;;;7.45;;
27489;SDS011;14925;51.026;13.752;2022-09-23T02:09:36;7.97;;;5.72;;
27489;SDS011;14925;51.026;13.752;2022-09-23T02:12:04;9.05;;;6.75;;
27489;SDS011;14925;51.026;13.752;2022-09-23T02:14:37;11.07;;;7.40;;
27489;SDS011;14925;51.026;13.752;2022-09-23T02:17:09;8.85;;;6.95;;
27489;SDS011;14925;51.026;13.752;2022-09-23T02:19:58;10.95;;;7.82;;
27489;SDS011;14925;51.026;13.752;2022-09-23T02:22:26;8.95;;;7.20;;
27489;SDS011;14925;51.026;13.752;2022-09-23T02:24:54;8.90;;;6.57;;
27489;SDS011;14925;51.026;13.752;2022-09-23T02:30:06;10.52;;;7.60;;
27489;SDS011;14925;51.026;13.752;2022-09-23T02:37:46;10.07;;;6.90;;
27489;SDS011;14925;51.026;13.752;2022-09-23T02:42:55;9.95;;;7.25;;
27489;SDS011;14925;51.026;13.752;2022-09-23T02:45:33;12.32;;;8.05;;
27489;SDS011;14925;51.026;13.752;2022-09-23T02:48:06;8.95;;;6.30;;
27489;SDS011;14925;51.026;13.752;2022-09-23T02:50:35;10.20;;;7.10;;
27489;SDS011;14925;51.026;13.752;2022-09-23T02:53:01;9.85;;;7.60;;
27489;SDS011;14925;51.026;13.752;2022-09-23T02:55:30;8.20;;;6.78;;
27489;SDS011;14925;51.026;13.752;2022-09-23T02:57:57;9.00;;;7.28;;
27489;SDS011;14925;51.026;13.752;2022-09-23T03:00:25;11.38;;;7.22;;
27489;SDS011;14925;51.026;13.752;2022-09-23T03:03:09;15.10;;;6.80;;
27489;SDS011;14925;51.026;13.752;2022-09-23T03:05:55;9.77;;;6.45;;
27489;SDS011;14925;51.026;13.752;2022-09-23T03:11:04;10.15;;;7.85;;
27489;SDS011;14925;51.026;13.752;2022-09-23T03:18:46;14.02;;;8.60;;
27489;SDS011;14925;51.026;13.752;2022-09-23T03:21:17;9.93;;;7.32;;
27489;SDS011;14925;51.026;13.752;2022-09-23T03:24:14;11.35;;;7.35;;
27489;SDS011;14925;51.026;13.752;2022-09-23T03:26:42;10.05;;;6.78;;
27489;SDS011;14925;51.026;13.752;2022-09-23T03:29:09;10.27;;;7.15;;
27489;SDS011;14925;51.026;13.752;2022-09-23T03:31:36;11.13;;;7.88;;
27489;SDS011;14925;51.026;13.752;2022-09-23T03:34:04;11.18;;;8.20;;
27489;SDS011;14925;51.026;13.752;2022-09-23T03:36:48;13.18;;;8.48;;
27489;SDS011;14925;51.026;13.752;2022-09-23T03:42:18;11.45;;;6.53;;
27489;SDS011;14925;51.026;13.752;2022-09-23T03:44:46;11.98;;;6.95;;
27489;SDS011;14925;51.026;13.752;2022-09-23T03:47:12;10.00;;;7.20;;
27489;SDS011;14925;51.026;13.752;2022-09-23T03:49:39;12.48;;;7.95;;
27489;SDS011;14925;51.026;13.752;2022-09-23T03:52:13;10.00;;;5.93;;
27489;SDS011;14925;51.026;13.752;2022-09-23T03:54:39;11.88;;;7.43;;
27489;SDS011;14925;51.026;13.752;2022-09-23T03:57:04;11.25;;;6.93;;
27489;SDS011;14925;51.026;13.752;2022-09-23T03:59:33;9.52;;;6.63;;
27489;SDS011;14925;51.026;13.752;2022-09-23T04:01:59;13.05;;;8.93;;
27489;SDS011;14925;51.026;13.752;2022-09-23T04:04:25;12.38;;;9.10;;
27489;SDS011;14925;51.026;13.752;2022-09-23T04:06:51;9.00;;;6.93;;
27489;SDS011;14925;51.026;13.752;2022-09-23T04:09:18;12.80;;;8.50;;
27489;SDS011;14925;51.026;13.752;2022-09-23T04:11:47;8.65;;;6.85;;
27489;SDS011;14925;51.026;13.752;2022-09-23T04:14:16;14.68;;;8.65;;
27489;SDS011;14925;51.026;13.752;2022-09-23T04:16:41;11.27;;;8.32;;
27489;SDS011;14925;51.026;13.752;2022-09-23T04:19:08;9.77;;;7.82;;
27489;SDS011;14925;51.026;13.752;2022-09-23T04:21:34;12.63;;;8.63;;
27489;SDS011;14925;51.026;13.752;2022-09-23T04:23:59;15.13;;;8.88;;
27489;SDS011;14925;51.026;13.752;2022-09-23T04:26:25;13.18;;;8.55;;
27489;SDS011;14925;51.026;13.752;2022-09-23T04:28:50;12.55;;;9.27;;
27489;SDS011;14925;51.026;13.752;2022-09-23T04:31:16;17.67;;;10.48;;
27489;SDS011;14925;51.026;13.752;2022-09-23T04:33:41;10.77;;;8.25;;
27489;SDS011;14925;51.026;13.752;2022-09-23T04:36:06;12.43;;;9.35;;
27489;SDS011;14925;51.026;13.752;2022-09-23T04:38:32;11.02;;;7.32;;
27489;SDS011;14925;51.026;13.752;2022-09-23T04:40:57;10.40;;;8.93;;
27489;SDS011;14925;51.026;13.752;2022-09-23T04:43:23;13.13;;;8.52;;
27489;SDS011;14925;51.026;13.752;2022-09-23T04:45:58;10.32;;;7.88;;
27489;SDS011;14925;51.026;13.752;2022-09-23T04:48:24;15.20;;;9.35;;
27489;SDS011;14925;51.026;13.752;2022-09-23T04:50:50;13.15;;;10.02;;
27489;SDS011;14925;51.026;13.752;2022-09-23T04:53:15;14.20;;;10.23;;
27489;SDS011;14925;51.026;13.752;2022-09-23T04:55:41;11.18;;;8.40;;
27489;SDS011;14925;51.026;13.752;2022-09-23T04:58:07;16.02;;;10.50;;
27489;SDS011;14925;51.026;13.752;2022-09-23T05:00:33;12.40;;;9.07;;
27489;SDS011;14925;51.026;13.752;2022-09-23T05:02:59;11.45;;;8.82;;
27489;SDS011;14925;51.026;13.752;2022-09-23T05:05:24;14.35;;;9.75;;
27489;SDS011;14925;51.026;13.752;2022-09-23T05:07:53;18.73;;;11.25;;
27489;SDS011;14925;51.026;13.752;2022-09-23T05:10:18;12.52;;;8.85;;
27489;SDS011;14925;51.026;13.752;2022-09-23T05:12:44;13.90;;;9.90;;
27489;SDS011;14925;51.026;13.752;2022-09-23T05:15:09;15.43;;;10.75;;
27489;SDS011;14925;51.026;13.752;2022-09-23T05:17:35;19.25;;;11.52;;
27489;SDS011;14925;51.026;13.752;2022-09-23T05:20:01;13.73;;;10.35;;
27489;SDS011;14925;51.026;13.752;2022-09-23T05:22:28;19.17;;;10.75;;
27489;SDS011;14925;51.026;13.752;2022-09-23T05:24:53;17.98;;;12.43;;
27489;SDS011;14925;51.026;13.752;2022-09-23T05:27:19;14.98;;;10.60;;
27489;SDS011;14925;51.026;13.752;2022-09-23T05:29:44;16.20;;;11.82;;
27489;SDS011;14925;51.026;13.752;2022-09-23T05:32:11;16.40;;;11.57;;
27489;SDS011;14925;51.026;13.752;2022-09-23T05:34:36;15.35;;;10.70;;
27489;SDS011;14925;51.026;13.752;2022-09-23T05:37:02;18.65;;;11.77;;
27489;SDS011;14925;51.026;13.752;2022-09-23T05:39:28;14.10;;;10.15;;
27489;SDS011;14925;51.026;13.752;2022-09-23T05:41:53;16.77;;;11.13;;
27489;SDS011;14925;51.026;13.752;2022-09-23T05:44:19;13.90;;;10.07;;
27489;SDS011;14925;51.026;13.752;2022-09-23T05:46:45;13.15;;;10.23;;
27489;SDS011;14925;51.026;13.752;2022-09-23T05:49:10;17.20;;;11.00;;
27489;SDS011;14925;51.026;13.752;2022-09-23T05:51:35;16.17;;;10.40;;
27489;SDS011;14925;51.026;13.752;2022-09-23T05:54:01;20.08;;;11.98;;
27489;SDS011;14925;51.026;13.752;2022-09-23T05:56:28;14.05;;;9.48;;
27489;SDS011;14925;51.026;13.752;2022-09-23T05:58:55;14.68;;;10.90;;
27489;SDS011;14925;51.026;13.752;2022-09-23T06:01:22;13.45;;;9.80;;
27489;SDS011;14925;51.026;13.752;2022-09-23T06:03:52;15.82;;;9.85;;
27489;SDS011;14925;51.026;13.752;2022-09-23T06:06:19;12.23;;;10.13;;
27489;SDS011;14925;51.026;13.752;2022-09-23T06:08:46;15.70;;;8.75;;
27489;SDS011;14925;51.026;13.752;2022-09-23T06:11:11;13.85;;;8.43;;
27489;SDS011;14925;51.026;13.752;2022-09-23T06:13:37;12.23;;;8.18;;
27489;SDS011;14925;51.026;13.752;2022-09-23T06:16:07;12.70;;;9.57;;
27489;SDS011;14925;51.026;13.752;2022-09-23T06:18:34;15.88;;;10.15;;
27489;SDS011;14925;51.026;13.752;2022-09-23T06:21:01;12.60;;;8.00;;
27489;SDS011;14925;51.026;13.752;2022-09-23T06:23:27;14.73;;;7.93;;
27489;SDS011;14925;51.026;13.752;2022-09-23T06:25:53;15.23;;;8.10;;
27489;SDS011;14925;51.026;13.752;2022-09-23T06:28:23;14.10;;;8.45;;
27489;SDS011;14925;51.026;13.752;2022-09-23T06:30:49;14.20;;;7.60;;
27489;SDS011;14925;51.026;13.752;2022-09-23T06:33:21;14.57;;;8.25;;
27489;SDS011;14925;51.026;13.752;2022-09-23T06:35:46;17.45;;;8.18;;
27489;SDS011;14925;51.026;13.752;2022-09-23T06:38:12;20.40;;;8.65;;
27489;SDS011;14925;51.026;13.752;2022-09-23T06:40:37;15.85;;;7.38;;
27489;SDS011;14925;51.026;13.752;2022-09-23T06:43:03;15.15;;;8.10;;
27489;SDS011;14925;51.026;13.752;2022-09-23T06:45:28;14.35;;;8.15;;
27489;SDS011;14925;51.026;13.752;2022-09-23T06:47:54;13.57;;;8.20;;
27489;SDS011;14925;51.026;13.752;2022-09-23T06:50:20;12.85;;;7.85;;
27489;SDS011;14925;51.026;13.752;2022-09-23T06:52:49;12.60;;;8.45;;
27489;SDS011;14925;51.026;13.752;2022-09-23T06:55:15;12.50;;;8.23;;
27489;SDS011;14925;51.026;13.752;2022-09-23T06:57:41;14.02;;;7.78;;
27489;SDS011;14925;51.026;13.752;2022-09-23T07:00:06;13.38;;;7.50;;
27489;SDS011;14925;51.026;13.752;2022-09-23T07:02:32;13.07;;;7.95;;
27489;SDS011;14925;51.026;13.752;2022-09-23T07:04:57;17.60;;;8.27;;
27489;SDS011;14925;51.026;13.752;2022-09-23T07:07:23;14.43;;;7.97;;
27489;SDS011;14925;51.026;13.752;2022-09-23T07:09:50;11.15;;;7.55;;
27489;SDS011;14925;51.026;13.752;2022-09-23T07:12:16;12.40;;;8.15;;
27489;SDS011;14925;51.026;13.752;2022-09-23T07:14:42;11.13;;;7.75;;
27489;SDS011;14925;51.026;13.752;2022-09-23T07:17:07;12.07;;;7.25;;
27489;SDS011;14925;51.026;13.752;2022-09-23T07:19:32;11.10;;;6.32;;
27489;SDS011;14925;51.026;13.752;2022-09-23T07:22:00;12.60;;;6.18;;
27489;SDS011;14925;51.026;13.752;2022-09-23T07:24:25;12.05;;;6.32;;
27489;SDS011;14925;51.026;13.752;2022-09-23T07:26:50;10.85;;;5.85;;
27489;SDS011;14925;51.026;13.752;2022-09-23T07:29:16;9.25;;;5.65;;
27489;SDS011;14925;51.026;13.752;2022-09-23T07:31:41;9.68;;;5.65;;
27489;SDS011;14925;51.026;13.752;2022-09-23T07:34:07;10.27;;;5.70;;
27489;SDS011;14925;51.026;13.752;2022-09-23T07:36:34;8.23;;;5.75;;
27489;SDS011;14925;51.026;13.752;2022-09-23T07:39:01;9.32;;;5.75;;
27489;SDS011;14925;51.026;13.752;2022-09-23T07:41:28;10.20;;;5.68;;
27489;SDS011;14925;51.026;13.752;2022-09-23T07:43:55;8.32;;;5.07;;
27489;SDS011;14925;51.026;13.752;2022-09-23T07:46:23;8.00;;;4.70;;
27489;SDS011;14925;51.026;13.752;2022-09-23T07:48:50;10.10;;;5.28;;
27489;SDS011;14925;51.026;13.752;2022-09-23T07:51:21;10.40;;;5.82;;
27489;SDS011;14925;51.026;13.752;2022-09-23T07:53:50;9.23;;;5.32;;
27489;SDS011;14925;51.026;13.752;2022-09-23T07:56:16;7.60;;;5.15;;
27489;SDS011;14925;51.026;13.752;2022-09-23T07:58:43;8.10;;;5.00;;
27489;SDS011;14925;51.026;13.752;2022-09-23T08:01:09;9.82;;;5.63;;
27489;SDS011;14925;51.026;13.752;2022-09-23T08:03:36;6.95;;;5.13;;
27489;SDS011;14925;51.026;13.752;2022-09-23T08:06:09;9.35;;;5.80;;
27489;SDS011;14925;51.026;13.752;2022-09-23T08:08:36;9.30;;;5.57;;
27489;SDS011;14925;51.026;13.752;2022-09-23T08:11:08;11.02;;;5.45;;
27489;SDS011;14925;51.026;13.752;2022-09-23T08:13:34;10.77;;;5.65;;
27489;SDS011;14925;51.026;13.752;2022-09-23T08:16:00;8.80;;;5.72;;
27489;SDS011;14925;51.026;13.752;2022-09-23T08:18:25;9.07;;;5.30;;
27489;SDS011;14925;51.026;13.752;2022-09-23T08:20:51;7.28;;;5.40;;
27489;SDS011;14925;51.026;13.752;2022-09-23T08:23:16;9.48;;;5.13;;
27489;SDS011;14925;51.026;13.752;2022-09-23T08:25:45;10.00;;;5.68;;
27489;SDS011;14925;51.026;13.752;2022-09-23T08:28:11;9.75;;;5.15;;
27489;SDS011;14925;51.026;13.752;2022-09-23T08:30:40;8.02;;;5.38;;
27489;SDS011;14925;51.026;13.752;2022-09-23T08:33:05;7.63;;;5.35;;
27489;SDS011;14925;51.026;13.752;2022-09-23T08:35:30;10.60;;;4.22;;
27489;SDS011;14925;51.026;13.752;2022-09-23T08:37:56;7.30;;;4.97;;
27489;SDS011;14925;51.026;13.752;2022-09-23T08:40:22;6.47;;;4.55;;
27489;SDS011;14925;51.026;13.752;2022-09-23T08:42:48;9.35;;;5.05;;
27489;SDS011;14925;51.026;13.752;2022-09-23T08:45:24;9.02;;;4.35;;
27489;SDS011;14925;51.026;13.752;2022-09-23T08:48:04;5.05;;;4.03;;
27489;SDS011;14925;51.026;13.752;2022-09-23T08:50:37;8.23;;;4.47;;
27489;SDS011;14925;51.026;13.752;2022-09-23T08:53:14;7.85;;;3.92;;
27489;SDS011;14925;51.026;13.752;2022-09-23T08:55:47;6.50;;;4.60;;
27489;SDS011;14925;51.026;13.752;2022-09-23T09:09:41;6.72;;;3.80;;
27489;SDS011;14925;51.026;13.752;2022-09-23T09:14:42;6.65;;;3.78;;
27489;SDS011;14925;51.026;13.752;2022-09-23T09:18:05;7.15;;;3.50;;
27489;SDS011;14925;51.026;13.752;2022-09-23T09:25:43;6.10;;;4.35;;
27489;SDS011;14925;51.026;13.752;2022-09-23T09:28:14;5.57;;;4.10;;
27489;SDS011;14925;51.026;13.752;2022-09-23T09:30:41;8.00;;;3.72;;
27489;SDS011;14925;51.026;13.752;2022-09-23T09:33:15;7.22;;;4.05;;
27489;SDS011;14925;51.026;13.752;2022-09-23T09:38:25;5.88;;;3.50;;
27489;SDS011;14925;51.026;13.752;2022-09-23T09:40:51;9.02;;;4.00;;
27489;SDS011;14925;51.026;13.752;2022-09-23T09:43:19;8.30;;;3.70;;
27489;SDS011;14925;51.026;13.752;2022-09-23T09:51:27;6.28;;;3.35;;
27489;SDS011;14925;51.026;13.752;2022-09-23T09:53:53;5.88;;;3.63;;
27489;SDS011;14925;51.026;13.752;2022-09-23T09:56:39;8.27;;;3.53;;
27489;SDS011;14925;51.026;13.752;2022-09-23T09:59:09;9.55;;;3.47;;
27489;SDS011;14925;51.026;13.752;2022-09-23T10:01:36;7.85;;;3.25;;
27489;SDS011;14925;51.026;13.752;2022-09-23T10:04:05;6.18;;;3.15;;
27489;SDS011;14925;51.026;13.752;2022-09-23T10:07:30;6.13;;;3.08;;
27489;SDS011;14925;51.026;13.752;2022-09-23T10:09:38;6.18;;;3.17;;
27489;SDS011;14925;51.026;13.752;2022-09-23T10:12:15;4.43;;;2.72;;
27489;SDS011;14925;51.026;13.752;2022-09-23T10:14:42;5.82;;;2.55;;
27489;SDS011;14925;51.026;13.752;2022-09-23T10:17:14;6.35;;;3.42;;
27489;SDS011;14925;51.026;13.752;2022-09-23T10:20:13;4.25;;;2.90;;
27489;SDS011;14925;51.026;13.752;2022-09-23T10:22:39;5.70;;;3.15;;
27489;SDS011;14925;51.026;13.752;2022-09-23T10:25:07;5.13;;;2.65;;
27489;SDS011;14925;51.026;13.752;2022-09-23T10:27:35;5.15;;;2.03;;
27489;SDS011;14925;51.026;13.752;2022-09-23T10:30:02;3.80;;;2.10;;
27489;SDS011;14925;51.026;13.752;2022-09-23T10:32:36;3.92;;;1.80;;
27489;SDS011;14925;51.026;13.752;2022-09-23T10:40:13;3.08;;;1.65;;
27489;SDS011;14925;51.026;13.752;2022-09-23T10:43:21;2.85;;;1.50;;
27489;SDS011;14925;51.026;13.752;2022-09-23T10:51:54;3.10;;;1.50;;
27489;SDS011;14925;51.026;13.752;2022-09-23T10:54:41;3.05;;;1.27;;
27489;SDS011;14925;51.026;13.752;2022-09-23T11:00:29;4.25;;;1.60;;
27489;SDS011;14925;51.026;13.752;2022-09-23T11:10:40;3.17;;;1.58;;
27489;SDS011;14925;51.026;13.752;2022-09-23T11:16:23;3.45;;;1.50;;
27489;SDS011;14925;51.026;13.752;2022-09-23T11:21:44;2.50;;;1.40;;
27489;SDS011;14925;51.026;13.752;2022-09-23T11:32:16;4.28;;;1.40;;
27489;SDS011;14925;51.026;13.752;2022-09-23T11:35:26;2.60;;;1.60;;
27489;SDS011;14925;51.026;13.752;2022-09-23T11:38:11;1.80;;;1.27;;
27489;SDS011;14925;51.026;13.752;2022-09-23T11:40:48;1.80;;;1.13;;
27489;SDS011;14925;51.026;13.752;2022-09-23T11:43:37;4.20;;;1.50;;
27489;SDS011;14925;51.026;13.752;2022-09-23T11:46:08;4.28;;;1.38;;
27489;SDS011;14925;51.026;13.752;2022-09-23T11:51:15;2.83;;;1.30;;
27489;SDS011;14925;51.026;13.752;2022-09-23T11:53:48;4.18;;;1.40;;
27489;SDS011;14925;51.026;13.752;2022-09-23T11:56:42;3.63;;;1.30;;
27489;SDS011;14925;51.026;13.752;2022-09-23T12:01:55;2.35;;;1.00;;
27489;SDS011;14925;51.026;13.752;2022-09-23T12:04:29;2.13;;;1.25;;
27489;SDS011;14925;51.026;13.752;2022-09-23T12:09:33;1.77;;;1.10;;
27489;SDS011;14925;51.026;13.752;2022-09-23T12:14:49;3.42;;;1.20;;
27489;SDS011;14925;51.026;13.752;2022-09-23T12:17:53;1.40;;;1.08;;
27489;SDS011;14925;51.026;13.752;2022-09-23T12:20:25;2.50;;;1.30;;
27489;SDS011;14925;51.026;13.752;2022-09-23T12:23:13;3.80;;;1.40;;
27489;SDS011;14925;51.026;13.752;2022-09-23T12:25:45;2.05;;;1.40;;
27489;SDS011;14925;51.026;13.752;2022-09-23T12:28:33;2.28;;;1.30;;
27489;SDS011;14925;51.026;13.752;2022-09-23T12:31:03;3.17;;;1.50;;
27489;SDS011;14925;51.026;13.752;2022-09-23T12:33:32;3.55;;;1.33;;
27489;SDS011;14925;51.026;13.752;2022-09-23T12:36:02;2.25;;;1.50;;
27489;SDS011;14925;51.026;13.752;2022-09-23T12:38:33;3.80;;;1.27;;
27489;SDS011;14925;51.026;13.752;2022-09-23T12:41:00;1.95;;;1.40;;
27489;SDS011;14925;51.026;13.752;2022-09-23T12:43:32;2.42;;;1.45;;
27489;SDS011;14925;51.026;13.752;2022-09-23T12:49:04;3.80;;;1.75;;
27489;SDS011;14925;51.026;13.752;2022-09-23T13:01:45;3.42;;;1.60;;
27489;SDS011;14925;51.026;13.752;2022-09-23T13:04:30;2.78;;;1.67;;
27489;SDS011;14925;51.026;13.752;2022-09-23T13:07:39;3.30;;;1.30;;
27489;SDS011;14925;51.026;13.752;2022-09-23T13:13:35;3.15;;;1.38;;
27489;SDS011;14925;51.026;13.752;2022-09-23T13:18:54;4.97;;;1.50;;
27489;SDS011;14925;51.026;13.752;2022-09-23T13:26:50;1.85;;;1.40;;
27489;SDS011;14925;51.026;13.752;2022-09-23T13:31:52;2.70;;;1.30;;
27489;SDS011;14925;51.026;13.752;2022-09-23T13:34:22;3.35;;;1.50;;
27489;SDS011;14925;51.026;13.752;2022-09-23T13:36:48;2.08;;;1.50;;
27489;SDS011;14925;51.026;13.752;2022-09-23T13:39:14;4.80;;;1.40;;
27489;SDS011;14925;51.026;13.752;2022-09-23T13:41:44;3.67;;;1.52;;
27489;SDS011;14925;51.026;13.752;2022-09-23T13:44:14;4.35;;;1.45;;
27489;SDS011;14925;51.026;13.752;2022-09-23T13:46:44;4.25;;;1.40;;
27489;SDS011;14925;51.026;13.752;2022-09-23T13:52:23;4.55;;;1.70;;
27489;SDS011;14925;51.026;13.752;2022-09-23T13:54:50;7.50;;;1.88;;
27489;SDS011;14925;51.026;13.752;2022-09-23T13:57:26;2.97;;;1.77;;
27489;SDS011;14925;51.026;13.752;2022-09-23T13:59:53;3.08;;;1.75;;
27489;SDS011;14925;51.026;13.752;2022-09-23T14:02:19;3.35;;;2.10;;
27489;SDS011;14925;51.026;13.752;2022-09-23T14:04:44;5.50;;;2.00;;
27489;SDS011;14925;51.026;13.752;2022-09-23T14:07:11;4.57;;;2.30;;
27489;SDS011;14925;51.026;13.752;2022-09-23T14:09:40;6.45;;;2.90;;
27489;SDS011;14925;51.026;13.752;2022-09-23T14:12:07;4.63;;;2.30;;
27489;SDS011;14925;51.026;13.752;2022-09-23T14:14:35;4.13;;;2.00;;
27489;SDS011;14925;51.026;13.752;2022-09-23T14:17:02;4.00;;;2.10;;
27489;SDS011;14925;51.026;13.752;2022-09-23T14:19:28;6.07;;;2.30;;
27489;SDS011;14925;51.026;13.752;2022-09-23T14:21:54;4.32;;;2.40;;
27489;SDS011;14925;51.026;13.752;2022-09-23T14:24:33;6.10;;;2.25;;
27489;SDS011;14925;51.026;13.752;2022-09-23T14:27:42;3.97;;;2.05;;
27489;SDS011;14925;51.026;13.752;2022-09-23T14:29:55;3.30;;;2.03;;
27489;SDS011;14925;51.026;13.752;2022-09-23T14:32:22;5.35;;;1.92;;
27489;SDS011;14925;51.026;13.752;2022-09-23T14:42:44;3.05;;;1.85;;
27489;SDS011;14925;51.026;13.752;2022-09-23T14:45:12;2.38;;;1.80;;
27489;SDS011;14925;51.026;13.752;2022-09-23T14:47:45;4.50;;;2.15;;
27489;SDS011;14925;51.026;13.752;2022-09-23T14:50:20;3.35;;;1.88;;
27489;SDS011;14925;51.026;13.752;2022-09-23T14:55:49;3.50;;;1.83;;
27489;SDS011;14925;51.026;13.752;2022-09-23T14:58:17;4.15;;;1.83;;
27489;SDS011;14925;51.026;13.752;2022-09-23T15:00:51;3.13;;;2.10;;
27489;SDS011;14925;51.026;13.752;2022-09-23T15:03:20;2.67;;;2.17;;
27489;SDS011;14925;51.026;13.752;2022-09-23T15:05:49;4.63;;;2.15;;
27489;SDS011;14925;51.026;13.752;2022-09-23T15:08:17;4.20;;;2.17;;
27489;SDS011;14925;51.026;13.752;2022-09-23T15:10:45;4.90;;;2.03;;
27489;SDS011;14925;51.026;13.752;2022-09-23T15:13:18;3.03;;;2.10;;
27489;SDS011;14925;51.026;13.752;2022-09-23T15:15:45;4.75;;;2.40;;
27489;SDS011;14925;51.026;13.752;2022-09-23T15:18:14;4.40;;;2.40;;
27489;SDS011;14925;51.026;13.752;2022-09-23T15:20:49;4.60;;;3.00;;
27489;SDS011;14925;51.026;13.752;2022-09-23T15:23:35;5.75;;;2.80;;
27489;SDS011;14925;51.026;13.752;2022-09-23T15:26:13;4.47;;;2.33;;
27489;SDS011;14925;51.026;13.752;2022-09-23T15:28:40;6.15;;;3.00;;
27489;SDS011;14925;51.026;13.752;2022-09-23T15:31:10;4.70;;;2.80;;
27489;SDS011;14925;51.026;13.752;2022-09-23T15:33:42;4.65;;;3.08;;
27489;SDS011;14925;51.026;13.752;2022-09-23T15:36:14;3.47;;;2.60;;
27489;SDS011;14925;51.026;13.752;2022-09-23T15:38:43;3.92;;;2.78;;
27489;SDS011;14925;51.026;13.752;2022-09-23T15:41:08;3.83;;;3.10;;
27489;SDS011;14925;51.026;13.752;2022-09-23T15:43:34;4.20;;;3.05;;
27489;SDS011;14925;51.026;13.752;2022-09-23T15:46:07;4.30;;;3.00;;
27489;SDS011;14925;51.026;13.752;2022-09-23T15:48:41;5.25;;;2.97;;
27489;SDS011;14925;51.026;13.752;2022-09-23T15:51:08;7.75;;;3.50;;
27489;SDS011;14925;51.026;13.752;2022-09-23T15:53:37;5.68;;;3.58;;
27489;SDS011;14925;51.026;13.752;2022-09-23T15:56:02;8.70;;;3.22;;
27489;SDS011;14925;51.026;13.752;2022-09-23T15:58:29;6.13;;;3.30;;
27489;SDS011;14925;51.026;13.752;2022-09-23T16:00:57;5.45;;;3.75;;
27489;SDS011;14925;51.026;13.752;2022-09-23T16:03:24;9.45;;;4.40;;
27489;SDS011;14925;51.026;13.752;2022-09-23T16:05:52;11.02;;;4.93;;
27489;SDS011;14925;51.026;13.752;2022-09-23T16:08:20;5.90;;;4.13;;
27489;SDS011;14925;51.026;13.752;2022-09-23T16:10:49;11.68;;;5.22;;
27489;SDS011;14925;51.026;13.752;2022-09-23T16:13:15;11.15;;;5.20;;
27489;SDS011;14925;51.026;13.752;2022-09-23T16:15:44;14.15;;;6.57;;
27489;SDS011;14925;51.026;13.752;2022-09-23T16:18:12;9.52;;;5.50;;
27489;SDS011;14925;51.026;13.752;2022-09-23T16:20:41;9.77;;;6.78;;
27489;SDS011;14925;51.026;13.752;2022-09-23T16:23:21;10.48;;;6.07;;
27489;SDS011;14925;51.026;13.752;2022-09-23T16:25:58;10.60;;;6.97;;
27489;SDS011;14925;51.026;13.752;2022-09-23T16:28:24;11.80;;;7.75;;
27489;SDS011;14925;51.026;13.752;2022-09-23T16:30:50;13.45;;;6.85;;
27489;SDS011;14925;51.026;13.752;2022-09-23T16:33:15;13.20;;;7.78;;
27489;SDS011;14925;51.026;13.752;2022-09-23T16:35:40;13.85;;;7.35;;
27489;SDS011;14925;51.026;13.752;2022-09-23T16:38:07;10.90;;;7.93;;
27489;SDS011;14925;51.026;13.752;2022-09-23T16:40:32;14.95;;;7.03;;
27489;SDS011;14925;51.026;13.752;2022-09-23T16:42:58;10.07;;;7.03;;
27489;SDS011;14925;51.026;13.752;2022-09-23T16:45:26;12.65;;;7.47;;
27489;SDS011;14925;51.026;13.752;2022-09-23T16:47:51;11.20;;;7.45;;
27489;SDS011;14925;51.026;13.752;2022-09-23T16:50:17;13.65;;;8.40;;
27489;SDS011;14925;51.026;13.752;2022-09-23T16:52:44;18.02;;;11.35;;
27489;SDS011;14925;51.026;13.752;2022-09-23T16:55:11;28.73;;;16.70;;
27489;SDS011;14925;51.026;13.752;2022-09-23T16:57:37;25.60;;;14.73;;
27489;SDS011;14925;51.026;13.752;2022-09-23T17:00:08;34.15;;;18.92;;
27489;SDS011;14925;51.026;13.752;2022-09-23T17:02:55;29.33;;;18.67;;
27489;SDS011;14925;51.026;13.752;2022-09-23T17:05:39;30.80;;;17.25;;
27489;SDS011;14925;51.026;13.752;2022-09-23T17:08:04;24.77;;;14.90;;
27489;SDS011;14925;51.026;13.752;2022-09-23T17:10:31;25.40;;;15.60;;
27489;SDS011;14925;51.026;13.752;2022-09-23T17:12:57;22.35;;;14.02;;
27489;SDS011;14925;51.026;13.752;2022-09-23T17:15:22;21.35;;;12.70;;
27489;SDS011;14925;51.026;13.752;2022-09-23T17:17:48;19.38;;;11.00;;
27489;SDS011;14925;51.026;13.752;2022-09-23T17:20:16;20.17;;;12.05;;
27489;SDS011;14925;51.026;13.752;2022-09-23T17:22:42;18.08;;;10.95;;
27489;SDS011;14925;51.026;13.752;2022-09-23T17:25:13;18.88;;;10.63;;